Time;durP1;ratioP1;P1;durP2;ratioP2;P2;SDS_P1;SDS_P2;PMS_P1;PMS_P2;Temp;Humidity;BMP_temperature;BMP_pressure;BME280_temperature;BME280_humidity;BME280_pressure;Samples;Min_cycle;Max_cycle;Signal;HPM_P1;HPM_P2
2023/01/18 01:31:07;;;;;;;37.13;18.62;;;;;;;5.76;100.00;99133.73;1861224;76;27911;-60
2023/01/18 01:33:40;;;;;;;33.25;16.97;;;;;;;5.77;100.00;99133.22;1784180;80;21133;-60
2023/01/18 01:36:13;;;;;;;35.43;17.05;;;;;;;5.78;100.00;99133.02;1816571;79;21159;-61
2023/01/18 01:38:45;;;;;;;35.43;17.37;;;;;;;5.80;100.00;99121.43;1816643;77;21522;-61
2023/01/18 01:41:19;;;;;;;33.63;17.00;;;;;;;5.83;100.00;99124.27;1796610;80;21098;-61
2023/01/18 01:43:54;;;;;;;38.78;17.10;;;;;;;5.84;100.00;99111.84;1797289;78;21145;-60
2023/01/18 01:46:36;;;;;;;36.33;16.20;;;;;;;5.88;100.00;99110.44;1797017;80;21146;-61
2023/01/18 01:49:39;;;;;;;33.25;16.20;;;;;;;5.89;100.00;99105.36;1797128;79;21185;-59
2023/01/18 01:52:15;;;;;;;31.90;15.43;;;;;;;5.91;100.00;99101.08;1797085;79;21103;-61
2023/01/18 01:54:53;;;;;;;35.28;16.00;;;;;;;5.93;100.00;99101.20;1797040;80;21106;-61
2023/01/18 01:57:28;;;;;;;32.40;15.00;;;;;;;5.93;100.00;99098.48;1797041;80;21603;-60
2023/01/18 02:00:23;;;;;;;31.20;14.40;;;;;;;5.94;100.00;99102.88;1797284;80;21091;-60
2023/01/18 02:03:04;;;;;;;28.62;13.10;;;;;;;5.95;100.00;99109.98;1796907;80;21095;-60
2023/01/18 02:05:43;;;;;;;28.27;12.82;;;;;;;5.97;100.00;99103.00;1796968;79;21881;-62
2023/01/18 02:08:21;;;;;;;29.72;13.00;;;;;;;5.97;100.00;99101.64;1797075;80;21300;-61
2023/01/18 02:10:48;;;;;;;31.77;13.25;;;;;;;5.98;100.00;99095.16;1796713;79;21181;-61
2023/01/18 02:13:20;;;;;;;31.77;12.37;;;;;;;5.99;100.00;99094.12;1797023;80;21114;-59
2023/01/18 02:15:58;;;;;;;28.50;13.50;;;;;;;6.00;100.00;99098.00;1763543;80;21611;-62
2023/01/18 02:18:47;;;;;;;32.98;12.88;;;;;;;6.05;100.00;99085.16;1848247;77;22140;-61
2023/01/18 02:21:21;;;;;;;26.07;12.82;;;;;;;6.04;100.00;99089.77;1754147;82;21122;-61
2023/01/18 02:24:19;;;;;;;29.65;12.60;;;;;;;6.05;100.00;99097.39;1718165;83;21162;-61
2023/01/18 02:27:12;;;;;;;31.70;13.83;;;;;;;6.07;100.00;99079.52;1718260;83;21130;-61
2023/01/18 02:30:00;;;;;;;30.68;13.32;;;;;;;6.07;100.00;99089.04;1718370;83;21130;-60
2023/01/18 02:32:49;;;;;;;30.77;14.20;;;;;;;6.08;100.00;99083.92;1718270;83;21573;-60
2023/01/18 02:35:30;;;;;;;33.90;15.05;;;;;;;6.09;100.00;99074.20;1718241;83;21224;-60
2023/01/18 02:38:10;;;;;;;35.15;14.75;;;;;;;6.08;100.00;99075.24;1635253;86;21240;-59
2023/01/18 02:40:55;;;;;;;27.45;13.62;;;;;;;6.09;100.00;99078.28;1718725;83;21273;-61
2023/01/18 02:49:02;;;;;;;29.40;14.50;;;;;;;6.10;100.00;99065.52;1762564;81;21142;-60
2023/01/18 02:51:32;;;;;;;31.10;13.98;;;;;;;6.11;100.00;99059.05;1762603;81;21142;-60
2023/01/18 02:54:03;;;;;;;30.20;13.53;;;;;;;6.10;100.00;99055.48;1762737;80;21126;-60
2023/01/18 02:56:41;;;;;;;33.10;14.35;;;;;;;6.11;100.00;99057.69;1762636;81;21194;-60
2023/01/18 02:59:28;;;;;;;32.33;13.93;;;;;;;6.10;100.00;99046.48;1762806;80;21114;-60
2023/01/18 03:02:18;;;;;;;27.50;13.20;;;;;;;6.12;100.00;99045.77;1732896;81;21178;-61
2023/01/18 03:04:54;;;;;;;29.85;14.13;;;;;;;6.14;100.00;99043.69;1762597;81;21200;-60
2023/01/18 03:07:42;;;;;;;31.60;13.72;;;;;;;6.15;100.00;99042.64;1763231;81;21569;-60
2023/01/18 03:10:13;;;;;;;;;;;;;;;6.16;100.00;99037.52;1765401;81;21237;-60
2023/01/18 03:13:08;;;;;;;32.35;13.50;;;;;;;6.17;100.00;99035.96;1762777;80;20457;-61
2023/01/18 03:15:50;;;;;;;32.93;13.55;;;;;;;6.16;100.00;99041.08;1762891;81;21135;-61
2023/01/18 03:18:58;;;;;;;30.25;14.33;;;;;;;6.15;100.00;99034.48;1743790;81;21186;-61
2023/01/18 03:21:14;;;;;;;33.18;14.38;;;;;;;6.17;100.00;99029.16;1760495;81;21156;-59
2023/01/18 03:23:45;;;;;;;29.27;13.22;;;;;;;6.17;100.00;99037.84;1762934;81;21150;-61
2023/01/18 03:26:18;;;;;;;29.95;12.88;;;;;;;6.18;100.00;99051.75;1744157;81;21119;-61
2023/01/18 03:34:59;;;;;;;27.65;13.35;;;;;;;6.20;100.00;99046.95;1762273;81;21288;-60
2023/01/18 03:37:36;;;;;;;35.25;14.00;;;;;;;6.20;100.00;99060.03;1762053;81;21950;-60
2023/01/18 03:40:16;;;;;;;29.10;13.18;;;;;;;6.20;100.00;99057.83;1762129;81;21111;-60
2023/01/18 03:43:15;;;;;;;28.87;13.35;;;;;;;6.21;100.00;99053.55;1762047;81;21118;-60
2023/01/18 03:45:47;;;;;;;28.73;12.47;;;;;;;6.22;100.00;99048.43;1750523;81;21174;-60
2023/01/18 03:48:17;;;;;;;26.87;12.80;;;;;;;6.21;100.00;99054.91;1751626;82;21542;-61
2023/01/18 03:50:53;;;;;;;31.57;13.60;;;;;;;6.21;100.00;99043.19;1751382;82;21096;-59
2023/01/18 03:53:31;;;;;;;31.65;13.45;;;;;;;6.21;100.00;99045.39;1751405;82;21123;-60
2023/01/18 03:56:08;;;;;;;33.92;12.90;;;;;;;6.21;100.00;99039.11;1751160;81;21566;-60
2023/01/18 03:58:41;;;;;;;31.95;13.15;;;;;;;6.21;100.00;99035.88;1751385;82;21212;-61
2023/01/18 04:01:12;;;;;;;26.68;12.10;;;;;;;6.23;100.00;99034.31;1763619;81;21134;-65
2023/01/18 04:03:45;;;;;;;31.50;12.80;;;;;;;6.23;100.00;99034.31;1737771;82;21119;-61
2023/01/18 04:06:15;;;;;;;31.70;13.45;;;;;;;6.22;100.00;99044.88;1751389;82;21641;-61
2023/01/18 04:08:45;;;;;;;29.72;13.58;;;;;;;6.24;100.00;99046.86;1751727;82;21143;-59
2023/01/18 04:11:15;;;;;;;24.63;11.88;;;;;;;6.25;100.00;99044.46;1751320;80;21547;-61
2023/01/18 04:13:45;;;;;;;27.65;13.00;;;;;;;6.27;100.00;99032.34;1751443;82;21547;-60
2023/01/18 04:16:15;;;;;;;30.32;12.60;;;;;;;6.29;100.00;99030.25;1751622;82;21112;-59
2023/01/18 04:18:45;;;;;;;25.75;13.05;;;;;;;6.29;100.00;99033.50;1751372;82;21531;-61
2023/01/18 04:21:14;;;;;;;26.33;12.73;;;;;;;6.30;100.00;99038.73;1751306;80;21079;-61
2023/01/18 04:23:44;;;;;;;30.88;12.95;;;;;;;6.30;100.00;99041.97;1763356;81;21108;-60
2023/01/18 04:26:15;;;;;;;27.95;12.73;;;;;;;6.28;100.00;99048.98;1751350;82;21092;-60
2023/01/18 04:28:45;;;;;;;26.42;11.73;;;;;;;6.29;100.00;99047.09;1751673;82;21613;-60
2023/01/18 04:31:15;;;;;;;27.85;12.63;;;;;;;6.29;100.00;99050.66;1751327;80;21194;-60
2023/01/18 04:33:50;;;;;;;27.30;12.37;;;;;;;6.30;100.00;99040.61;1751462;81;21111;-61
2023/01/18 04:36:20;;;;;;;28.40;13.10;;;;;;;6.29;100.00;99024.81;1738618;82;21597;-60
2023/01/18 04:38:53;;;;;;;26.80;13.18;;;;;;;6.31;100.00;99028.17;1763564;81;21127;-61
2023/01/18 04:41:24;;;;;;;27.93;12.47;;;;;;;6.31;100.00;99036.85;1751304;82;21123;-60
2023/01/18 04:43:54;;;;;;;29.15;11.73;;;;;;;6.32;100.00;99030.37;1751292;80;21190;-60
2023/01/18 04:46:25;;;;;;;24.45;10.82;;;;;;;6.33;100.00;99026.60;1780059;80;21138;-60
2023/01/18 04:48:56;;;;;;;28.87;11.55;;;;;;;6.33;100.00;99040.20;1755178;82;21135;-63
2023/01/18 04:51:26;;;;;;;26.40;11.33;;;;;;;6.34;100.00;99048.16;1755268;82;21189;-60
2023/01/18 04:53:56;;;;;;;27.80;11.83;;;;;;;6.35;100.00;99047.12;1755331;82;21162;-61
2023/01/18 04:56:26;;;;;;;25.62;11.33;;;;;;;6.34;100.00;99053.60;1762781;81;21151;-61
2023/01/18 04:58:56;;;;;;;22.95;11.45;;;;;;;6.35;100.00;99040.84;1755208;82;21088;-60
2023/01/18 05:01:28;;;;;;;28.70;11.95;;;;;;;6.36;100.00;99031.64;1755289;81;21166;-59
2023/01/18 05:04:00;;;;;;;27.73;11.80;;;;;;;6.36;100.00;99033.00;1755435;82;21143;-60
2023/01/18 05:06:31;;;;;;;25.68;11.55;;;;;;;6.39;100.00;99034.47;1755081;81;21127;-61
2023/01/18 05:09:00;;;;;;;28.47;12.43;;;;;;;6.40;100.00;99015.75;1755020;81;21570;-61
2023/01/18 05:11:30;;;;;;;26.87;11.45;;;;;;;6.41;100.00;99018.78;1755186;82;21218;-61
2023/01/18 05:14:01;;;;;;;25.62;12.03;;;;;;;6.43;100.00;99014.81;1738201;82;21143;-60
2023/01/18 05:16:33;;;;;;;27.93;11.90;;;;;;;6.45;100.00;99015.97;1755205;82;21261;-61
2023/01/18 05:19:03;;;;;;;23.77;11.20;;;;;;;6.45;100.00;99001.84;1755063;82;21111;-61
2023/01/18 05:21:33;;;;;;;27.60;11.08;;;;;;;6.47;100.00;99002.47;1755158;82;21605;-61
2023/01/18 05:24:04;;;;;;;25.37;13.10;;;;;;;6.47;100.00;99004.36;1755093;82;21107;-61
2023/01/18 05:26:33;;;;;;;25.90;11.53;;;;;;;6.44;100.00;99004.25;1755293;82;21202;-61
2023/01/18 05:29:04;;;;;;;27.45;10.95;;;;;;;6.45;100.00;99007.28;1755046;82;21157;-60
2023/01/18 05:31:35;;;;;;;21.87;11.55;;;;;;;6.47;100.00;99009.80;1755069;82;21143;-60
2023/01/18 05:34:05;;;;;;;27.48;11.53;;;;;;;6.47;100.00;99002.47;1755258;82;21172;-61
2023/01/18 05:36:36;;;;;;;25.08;11.68;;;;;;;6.49;100.00;98990.02;1755123;82;21135;-60
2023/01/18 05:39:10;;;;;;;25.12;12.23;;;;;;;6.52;100.00;98985.56;1755138;82;21277;-60
2023/01/18 05:41:41;;;;;;;28.07;11.97;;;;;;;6.53;100.00;98989.44;1755028;81;21112;-60
2023/01/18 05:44:12;;;;;;;28.00;11.40;;;;;;;6.54;100.00;98984.31;1755025;82;21178;-62
2023/01/18 05:46:44;;;;;;;26.30;11.45;;;;;;;6.56;100.00;98980.87;1755055;81;21167;-60
2023/01/18 05:49:14;;;;;;;24.52;12.43;;;;;;;6.57;100.00;98967.58;1755184;82;21170;-61
2023/01/18 05:51:44;;;;;;;28.02;12.33;;;;;;;6.60;100.00;98964.96;1755182;81;21135;-61
2023/01/18 05:54:15;;;;;;;24.37;11.83;;;;;;;6.61;100.00;98966.64;1737984;82;21616;-60
2023/01/18 05:56:44;;;;;;;26.93;13.00;;;;;;;6.62;100.00;98962.34;1755225;82;21116;-61
2023/01/18 05:59:14;;;;;;;25.70;11.43;;;;;;;6.64;100.00;98956.17;1755192;82;21585;-61
2023/01/18 06:01:44;;;;;;;26.62;11.25;;;;;;;6.67;100.00;98955.76;1755021;82;21600;-61
2023/01/18 06:04:14;;;;;;;31.20;13.50;;;;;;;6.70;100.00;98934.62;1755222;82;21609;-62
2023/01/18 06:06:45;;;;;;;29.90;14.13;;;;;;;6.72;100.00;98933.88;1755236;82;21163;-61
2023/01/18 06:09:16;;;;;;;24.10;12.45;;;;;;;6.75;100.00;98936.19;1755022;82;21563;-61
2023/01/18 06:11:46;;;;;;;26.35;12.07;;;;;;;6.80;100.00;98930.95;1755256;81;21111;-62
2023/01/18 06:14:16;;;;;;;26.60;12.15;;;;;;;6.83;100.00;98931.89;1755261;82;21142;-61
2023/01/18 06:16:46;;;;;;;24.43;12.05;;;;;;;6.86;100.00;98932.84;1754988;82;21139;-61
2023/01/18 06:19:16;;;;;;;28.25;12.00;;;;;;;6.88;100.00;98928.86;1762474;81;21155;-60
2023/01/18 06:21:46;;;;;;;24.67;12.20;;;;;;;6.91;100.00;98943.94;1755163;82;21119;-61
2023/01/18 06:24:16;;;;;;;25.75;12.03;;;;;;;6.93;100.00;98951.37;1676462;85;21123;-60
2023/01/18 06:26:47;;;;;;;24.57;11.12;;;;;;;6.95;100.00;98950.11;1693964;85;21110;-61
2023/01/18 06:29:18;;;;;;;29.75;13.35;;;;;;;6.96;100.00;98944.98;1633105;88;21193;-61
2023/01/18 06:31:48;;;;;;;24.20;11.43;;;;;;;6.99;100.00;98941.00;1690972;85;21154;-60
2023/01/18 06:34:18;;;;;;;25.95;11.45;;;;;;;7.01;100.00;98940.27;1690846;85;21110;-62
2023/01/18 06:36:50;;;;;;;21.77;10.48;;;;;;;7.02;100.00;98945.19;1690939;85;21188;-61
2023/01/18 06:39:20;;;;;;;30.32;12.53;;;;;;;7.04;100.00;98943.92;1690738;85;21186;-61
2023/01/18 06:41:50;;;;;;;25.92;11.08;;;;;;;7.06;100.00;98948.64;1714995;80;21185;-60
2023/01/18 06:44:19;;;;;;;24.57;11.70;;;;;;;7.09;100.00;98944.13;1755017;82;21111;-61
2023/01/18 06:46:49;;;;;;;28.62;11.70;;;;;;;7.11;100.00;98937.95;1747708;81;21231;-62
2023/01/18 06:49:20;;;;;;;29.63;12.18;;;;;;;7.12;100.00;98933.34;1763310;81;21582;-62
2023/01/18 06:51:51;;;;;;;23.67;11.45;;;;;;;7.12;100.00;98941.52;1751351;80;21582;-61
2023/01/18 06:54:23;;;;;;;22.87;11.85;;;;;;;7.14;100.00;98947.06;1751426;81;21115;-61
2023/01/18 06:56:54;;;;;;;29.92;11.97;;;;;;;7.16;100.00;98944.99;1751406;80;21147;-62
2023/01/18 06:59:23;;;;;;;23.35;11.05;;;;;;;7.14;100.00;98932.08;1751259;82;21577;-60
2023/01/18 07:02:00;;;;;;;24.60;11.75;;;;;;;7.16;100.00;98931.90;1751214;82;21134;-62
2023/01/18 07:04:36;;;;;;;23.12;11.20;;;;;;;7.16;100.00;98935.45;1751465;82;21119;-62
2023/01/18 07:07:04;;;;;;;26.97;12.03;;;;;;;7.19;100.00;98931.48;1751351;82;21539;-62
2023/01/18 07:09:36;;;;;;;31.75;11.68;;;;;;;7.18;100.00;98929.27;1751548;82;21138;-62
2023/01/18 07:12:06;;;;;;;25.77;11.38;;;;;;;7.22;100.00;98932.41;1751467;82;21123;-60
2023/01/18 07:14:35;;;;;;;21.23;10.45;;;;;;;7.23;100.00;98930.84;1737441;82;21584;-61
2023/01/18 07:17:05;;;;;;;25.97;12.85;;;;;;;7.23;100.00;98934.92;1751447;82;21139;-61
2023/01/18 07:19:34;;;;;;;28.90;11.93;;;;;;;7.25;100.00;98934.19;1751432;81;21150;-61
2023/01/18 07:22:04;;;;;;;24.37;10.43;;;;;;;7.26;100.00;98924.97;1738389;82;21159;-62
2023/01/18 07:24:34;;;;;;;29.87;11.75;;;;;;;7.28;100.00;98926.11;1751413;82;21519;-61
2023/01/18 07:27:04;;;;;;;23.35;11.48;;;;;;;7.29;100.00;98940.89;1751317;82;21143;-61
2023/01/18 07:29:34;;;;;;;24.40;10.55;;;;;;;7.31;100.00;98936.59;1751387;82;21644;-61
2023/01/18 07:32:06;;;;;;;26.57;11.15;;;;;;;7.33;100.00;98929.56;1738730;82;21150;-62
2023/01/18 07:34:36;;;;;;;27.17;11.78;;;;;;;7.34;100.00;98928.52;1751513;81;21158;-62
2023/01/18 07:37:06;;;;;;;29.72;12.53;;;;;;;7.35;100.00;98917.92;1737415;82;21120;-61
2023/01/18 07:39:35;;;;;;;33.90;13.58;;;;;;;7.37;100.00;98928.09;1751573;82;21171;-62
2023/01/18 07:42:06;;;;;;;34.73;13.55;;;;;;;7.36;100.00;98910.06;1751541;82;21154;-60
2023/01/18 07:44:36;;;;;;;33.63;13.78;;;;;;;7.38;100.00;98909.33;1751403;82;21159;-61
2023/01/18 07:47:06;;;;;;;30.75;14.93;;;;;;;7.39;100.00;98914.56;1776138;80;21138;-62
2023/01/18 07:49:37;;;;;;;31.77;13.10;;;;;;;7.40;100.00;98904.50;1784491;80;21162;-62
2023/01/18 07:52:07;;;;;;;34.15;14.85;;;;;;;7.40;100.00;98910.78;1784375;80;21569;-61
2023/01/18 07:54:37;;;;;;;27.50;11.05;;;;;;;7.42;100.00;98909.21;1736791;82;21095;-61
2023/01/18 07:57:06;;;;;;;28.50;11.20;;;;;;;7.42;100.00;98910.58;1755045;82;21148;-61
2023/01/18 10:30:55;;;;;;;36.88;15.23;;;;;;;8.09;100.00;98808.35;1845309;77;25828;-63
2023/01/18 10:33:42;;;;;;;49.13;16.65;;;;;;;8.06;100.00;98802.81;1805575;79;21206;-62
2023/01/18 10:36:44;;;;;;;38.30;16.40;;;;;;;8.09;100.00;98788.73;1738220;77;21138;-59
2023/01/18 10:40:03;;;;;;;36.48;14.75;;;;;;;8.15;100.00;98799.28;1720851;82;21171;-58
2023/01/18 10:43:06;;;;;;;38.08;12.63;;;;;;;8.23;100.00;98796.28;1603530;89;21226;-60
2023/01/18 10:46:36;;;;;;;29.92;11.93;;;;;;;8.30;100.00;98792.97;1562107;92;21149;-59
2023/01/18 10:49:42;;;;;;;29.92;10.40;;;;;;;8.37;100.00;98797.88;1561996;92;21181;-57
2023/01/18 10:52:29;;;;;;;30.05;11.05;;;;;;;8.44;100.00;98795.09;1567365;90;21173;-58
2023/01/18 10:55:10;;;;;;;27.98;11.08;;;;;;;8.49;100.00;98789.83;1551580;91;21671;-59
2023/01/18 10:57:50;;;;;;;30.62;11.83;;;;;;;8.52;100.00;98788.85;1535671;93;21299;-58
2023/01/18 11:00:33;;;;;;;24.67;9.83;;;;;;;8.56;100.00;98786.51;1535529;92;21189;-60
2023/01/18 11:03:04;;;;;;;23.60;9.35;;;;;;;8.57;100.00;98779.98;1557854;92;21241;-61
2023/01/18 11:05:38;;;;;;;26.02;9.95;;;;;;;8.61;100.00;98791.30;1560226;92;21633;-62
2023/01/18 11:08:14;;;;;;;26.55;10.10;;;;;;;8.64;100.00;98777.20;1558159;92;21588;-60
2023/01/18 11:10:43;;;;;;;36.30;16.20;;;;;;;8.66;100.00;98781.37;1593516;89;21229;-61
2023/01/18 11:13:33;;;;;;;25.43;9.18;;;;;;;8.68;100.00;98784.71;1602061;89;21606;-61
2023/01/18 11:16:12;;;;;;;24.98;8.83;;;;;;;8.72;100.00;98789.19;1601865;89;21162;-60
2023/01/18 11:18:59;;;;;;;24.43;9.83;;;;;;;8.74;100.00;98783.81;1601965;89;21306;-59
2023/01/18 11:21:42;;;;;;;24.05;9.28;;;;;;;8.78;100.00;98785.03;1601752;89;21174;-60
2023/01/18 11:24:18;;;;;;;26.37;8.25;;;;;;;8.82;100.00;98791.70;1578107;89;21161;-59
2023/01/18 11:26:57;;;;;;;26.65;9.95;;;;;;;8.85;100.00;98791.78;1576730;91;21253;-62
2023/01/18 11:29:35;;;;;;;30.02;10.68;;;;;;;8.87;100.00;98788.30;1577058;91;21153;-59
2023/01/18 11:32:16;;;;;;;30.08;9.60;;;;;;;8.89;100.00;98792.47;1576892;91;21194;-60
2023/01/18 11:34:52;;;;;;;26.02;9.08;;;;;;;8.98;100.00;98782.61;1847925;77;22625;-60
2023/01/18 11:37:36;;;;;;;26.50;8.33;;;;;;;8.95;100.00;98783.07;1820775;79;21111;-59
2023/01/18 11:40:26;;;;;;;30.08;8.35;;;;;;;8.98;100.00;98780.72;1753879;82;21154;-61
2023/01/18 11:43:12;;;;;;;26.75;8.38;;;;;;;9.02;100.00;98782.47;1753985;82;21162;-59
2023/01/18 11:46:13;;;;;;;23.47;9.48;;;;;;;9.04;100.00;98793.47;1753800;82;21558;-59
2023/01/18 11:48:50;;;;;;;26.52;8.80;;;;;;;9.09;100.00;98787.32;1753922;81;21091;-58
2023/01/18 11:51:29;;;;;;;22.17;9.65;;;;;;;9.14;100.00;98772.48;1753896;81;21099;-60
2023/01/18 11:54:32;;;;;;;19.48;7.97;;;;;;;9.17;100.00;98774.22;1753791;82;21233;-59
2023/01/18 11:57:01;;;;;;;24.90;7.55;;;;;;;9.21;100.00;98787.73;1754252;81;21126;-58
2023/01/18 11:59:41;;;;;;;22.87;7.78;;;;;;;9.25;100.00;98769.52;1734577;82;21181;-59
2023/01/18 12:02:54;;;;;;;21.27;7.47;;;;;;;9.31;100.00;98776.80;1747609;82;21163;-58
2023/01/18 12:05:36;;;;;;;20.77;6.97;;;;;;;9.36;100.00;98767.38;1726602;82;21107;-61
2023/01/18 12:08:30;;;;;;;17.27;7.10;;;;;;;9.41;100.00;98767.52;1747786;82;21108;-61
2023/01/18 12:11:16;;;;;;;19.77;7.55;;;;;;;9.46;100.00;98769.02;1726411;82;21158;-61
2023/01/18 12:13:51;;;;;;;18.95;6.95;;;;;;;9.52;100.00;98774.94;1748125;82;21171;-59
2023/01/18 12:16:24;;;;;;;14.98;6.78;;;;;;;9.56;100.00;98778.88;1747817;82;21127;-60
2023/01/18 12:19:23;;;;;;;22.42;6.42;;;;;;;9.60;100.00;98775.15;1721913;83;21592;-61
2023/01/18 12:22:23;;;;;;;22.48;6.03;;;;;;;9.62;100.00;98773.85;1747993;82;21119;-61
2023/01/18 12:25:30;;;;;;;15.88;6.53;;;;;;;9.66;100.00;98777.80;1726359;82;21135;-62
2023/01/18 12:28:18;;;;;;;22.67;6.35;;;;;;;9.69;100.00;98774.59;1748265;82;21146;-61
2023/01/18 12:31:19;;;;;;;21.05;6.05;;;;;;;9.72;100.00;98774.13;1748011;82;21127;-61
2023/01/18 12:33:54;;;;;;;17.32;5.72;;;;;;;9.77;100.00;98774.83;1724064;83;21131;-60
2023/01/18 12:36:53;;;;;;;15.80;6.30;;;;;;;9.80;100.00;98775.20;1721770;82;21138;-60
2023/01/18 12:39:27;;;;;;;19.62;6.58;;;;;;;9.83;100.00;98776.64;1751723;82;21111;-62
2023/01/18 12:42:07;;;;;;;19.23;6.62;;;;;;;9.84;100.00;98784.61;1721816;83;21183;-60
2023/01/18 12:44:47;;;;;;;18.12;6.28;;;;;;;9.87;100.00;98781.11;1751192;82;21132;-60
2023/01/18 12:47:49;;;;;;;18.32;6.17;;;;;;;9.88;100.00;98780.87;1721348;83;21186;-61
2023/01/18 12:50:26;;;;;;;22.67;6.22;;;;;;;9.90;100.00;98794.32;1751009;82;21148;-62
2023/01/18 12:52:59;;;;;;;18.05;6.17;;;;;;;9.91;100.00;98776.30;1750850;82;21171;-60
2023/01/18 12:55:30;;;;;;;15.78;6.05;;;;;;;9.91;100.00;98788.62;1750624;82;21136;-59
2023/01/18 12:57:59;;;;;;;18.80;5.97;;;;;;;9.92;100.00;98793.55;1751135;82;21128;-59
2023/01/18 13:00:39;;;;;;;20.45;6.35;;;;;;;9.94;100.00;98790.05;1750862;82;21160;-61
2023/01/18 13:03:11;;;;;;;20.48;6.35;;;;;;;9.95;100.00;98787.62;1751034;82;21584;-61
2023/01/18 13:05:54;;;;;;;17.73;6.35;;;;;;;9.94;100.00;98779.11;1751000;82;21133;-61
2023/01/18 13:08:49;;;;;;;18.30;6.00;;;;;;;9.95;100.00;98778.88;1751121;82;21144;-62
2023/01/18 13:11:34;;;;;;;20.95;7.40;;;;;;;9.95;100.00;98793.09;1750909;82;21207;-61
2023/01/18 13:14:32;;;;;;;19.45;5.90;;;;;;;9.96;100.00;98790.66;1750578;82;21144;-60
2023/01/18 13:17:34;;;;;;;18.10;6.10;;;;;;;9.96;100.00;98788.75;1751023;82;21125;-61
2023/01/18 13:20:16;;;;;;;21.65;6.33;;;;;;;9.98;100.00;98783.05;1750651;82;21132;-61
2023/01/18 13:22:58;;;;;;;21.33;7.28;;;;;;;9.99;100.00;98788.28;1750851;82;21169;-62
2023/01/18 13:25:45;;;;;;;15.78;6.25;;;;;;;10.00;100.00;98787.75;1750851;82;21647;-61
2023/01/18 13:28:22;;;;;;;15.15;5.50;;;;;;;9.99;100.00;98772.41;1750631;82;21192;-60
2023/01/18 13:31:03;;;;;;;17.65;6.55;;;;;;;10.00;100.00;98769.44;1750834;82;21163;-61
2023/01/18 13:33:57;;;;;;;16.30;5.87;;;;;;;10.01;100.00;98782.58;1748790;82;21133;-62
2023/01/18 13:36:28;;;;;;;17.67;6.42;;;;;;;10.02;100.00;98783.72;1731986;82;21152;-61
2023/01/18 13:39:05;;;;;;;21.70;6.37;;;;;;;10.03;100.00;98791.39;1749478;80;21118;-62
2023/01/18 13:41:34;;;;;;;19.80;6.92;;;;;;;10.03;100.00;98785.91;1724846;83;21158;-62
2023/01/18 13:44:11;;;;;;;19.73;6.47;;;;;;;10.04;100.00;98806.73;1713727;82;21086;-61
2023/01/18 13:46:41;;;;;;;19.15;6.80;;;;;;;10.03;100.00;98807.80;1736420;82;21174;-60
2023/01/18 13:49:21;;;;;;;19.12;6.10;;;;;;;10.04;100.00;98813.58;1748793;82;21127;-61
2023/01/18 13:51:57;;;;;;;19.55;6.35;;;;;;;10.03;100.00;98811.91;1772108;81;21131;-61
2023/01/18 13:54:33;;;;;;;18.50;5.90;;;;;;;10.06;100.00;98818.28;1778112;81;21146;-62
2023/01/18 13:57:19;;;;;;;18.27;6.33;;;;;;;10.08;100.00;98805.20;1747421;82;21170;-62
2023/01/18 13:59:50;;;;;;;21.50;5.97;;;;;;;10.10;100.00;98817.58;1685577;84;21176;-61
2023/01/18 14:02:41;;;;;;;18.50;5.92;;;;;;;10.14;100.00;98823.42;1714609;83;21748;-61
2023/01/18 14:05:21;;;;;;;16.73;6.25;;;;;;;10.15;100.00;98830.56;1714510;84;21142;-61
2023/01/18 14:08:01;;;;;;;19.50;6.28;;;;;;;10.16;100.00;98819.92;1714108;84;21134;-62
2023/01/18 14:10:36;;;;;;;20.10;6.00;;;;;;;10.17;100.00;98821.05;1714382;83;21629;-62
2023/01/18 14:13:09;;;;;;;18.42;6.45;;;;;;;10.18;99.93;98824.63;1714225;83;21162;-60
2023/01/18 14:15:49;;;;;;;23.90;5.87;;;;;;;10.19;99.83;98822.19;1714408;84;21127;-61
2023/01/18 14:18:25;;;;;;;19.48;6.45;;;;;;;10.18;99.75;98820.52;1714260;84;21111;-62
2023/01/18 14:21:42;;;;;;;14.65;5.62;;;;;;;10.17;99.73;98808.73;1714047;84;21245;-62
2023/01/18 14:24:21;;;;;;;17.07;5.80;;;;;;;10.18;99.74;98818.61;1689225;84;21181;-61
2023/01/18 14:26:54;;;;;;;18.77;6.22;;;;;;;10.19;99.72;98812.61;1714421;84;21142;-61
2023/01/18 14:29:40;;;;;;;23.52;6.25;;;;;;;10.20;99.66;98814.31;1714397;84;21193;-62
2023/01/18 14:32:13;;;;;;;18.50;6.78;;;;;;;10.20;99.64;98812.08;1714243;83;21213;-61
2023/01/18 14:34:44;;;;;;;18.90;6.33;;;;;;;10.18;99.62;98807.67;1714275;83;21260;-60
2023/01/18 14:37:30;;;;;;;20.90;7.72;;;;;;;10.19;99.55;98805.77;1754252;81;21174;-62
2023/01/18 14:40:06;;;;;;;26.48;7.03;;;;;;;10.20;99.55;98806.60;1721807;82;21592;-61
2023/01/18 14:42:51;;;;;;;;;;;;;;;10.19;99.55;98824.92;1780933;81;21194;-61
2023/01/18 14:45:36;;;;;;;18.02;6.00;;;;;;;10.19;99.55;98815.34;1722714;82;20508;-62
2023/01/18 14:48:16;;;;;;;22.50;6.37;;;;;;;10.18;99.64;98824.63;1748880;82;21149;-62
2023/01/18 14:50:46;;;;;;;22.50;6.42;;;;;;;10.18;99.66;98815.88;1756751;82;21105;-62
2023/01/18 14:53:29;;;;;;;18.50;6.83;;;;;;;10.21;99.67;98822.82;1725368;83;21135;-61
2023/01/18 14:56:20;;;;;;;24.80;6.75;;;;;;;10.21;99.66;98835.67;1720473;82;21110;-61
2023/01/18 14:59:02;;;;;;;22.98;7.25;;;;;;;10.19;99.65;98829.03;1757024;82;21145;-62
2023/01/18 15:01:37;;;;;;;19.82;6.37;;;;;;;10.19;99.68;98838.61;1707124;83;21147;-61
2023/01/18 15:04:26;;;;;;;24.25;7.33;;;;;;;10.20;99.76;98851.76;1749554;80;21572;-61
2023/01/18 15:07:02;;;;;;;20.05;6.50;;;;;;;10.19;99.78;98857.77;1725069;83;21329;-62
2023/01/18 15:09:35;;;;;;;16.15;5.67;;;;;;;10.21;99.82;98858.94;1686256;84;21123;-62
2023/01/18 15:12:08;;;;;;;21.55;6.20;;;;;;;10.21;99.87;98862.50;1692197;85;21718;-60
2023/01/18 15:14:39;;;;;;;18.25;5.60;;;;;;;10.20;99.90;98859.47;1686197;85;21614;-62
2023/01/18 15:17:10;;;;;;;22.40;6.40;;;;;;;10.22;99.89;98853.22;1631640;88;21162;-62
2023/01/18 15:19:43;;;;;;;20.65;6.20;;;;;;;10.24;99.87;98862.58;1631678;87;21206;-62
2023/01/18 15:22:15;;;;;;;21.17;5.72;;;;;;;10.23;99.80;98867.22;1631670;88;21186;-62
2023/01/18 15:24:45;;;;;;;20.85;5.72;;;;;;;10.24;99.79;98873.52;1610458;88;21127;-61
2023/01/18 15:27:16;;;;;;;15.70;5.80;;;;;;;10.22;99.76;98865.55;1631793;87;21154;-62
2023/01/18 15:29:52;;;;;;;17.75;5.58;;;;;;;10.24;99.71;98866.14;1631759;88;21206;-61
2023/01/18 15:32:31;;;;;;;21.68;6.15;;;;;;;10.24;99.67;98874.36;1632190;88;21174;-59
2023/01/18 15:35:10;;;;;;;21.48;6.83;;;;;;;10.25;99.61;98871.92;1711027;81;21127;-62
2023/01/18 15:37:47;;;;;;;16.48;5.40;;;;;;;10.26;99.55;98870.85;1757501;82;21145;-62
2023/01/18 15:40:22;;;;;;;21.12;5.33;;;;;;;10.24;99.50;98878.46;1725777;83;21140;-61
2023/01/18 15:43:03;;;;;;;19.23;6.15;;;;;;;10.25;99.47;98876.03;1727033;83;21156;-61
2023/01/18 15:45:42;;;;;;;17.77;5.58;;;;;;;10.24;99.34;98878.46;1698250;84;21516;-64
2023/01/18 15:48:17;;;;;;;16.95;5.55;;;;;;;10.25;99.30;98887.51;1719454;83;21122;-60
2023/01/18 15:50:56;;;;;;;25.30;6.78;;;;;;;10.25;99.25;98881.50;1696399;84;21193;-60
2023/01/18 15:53:31;;;;;;;22.35;6.08;;;;;;;10.26;99.17;98876.33;1693463;83;21205;-60
2023/01/18 15:56:04;;;;;;;17.50;5.35;;;;;;;10.25;99.08;98870.55;1673554;84;21169;-60
2023/01/18 16:01:30;;;;;;;18.77;5.70;;;;;;;10.25;99.01;98876.03;1701615;84;21570;-61
2023/01/18 16:04:02;;;;;;;20.02;6.10;;;;;;;10.26;99.04;98864.54;1696566;84;21116;-62
2023/01/18 16:06:36;;;;;;;18.35;5.47;;;;;;;10.25;98.98;98861.50;1689546;85;21125;-60
2023/01/18 16:09:17;;;;;;;19.15;6.47;;;;;;;10.24;99.01;98866.67;1666601;86;21209;-59
2023/01/18 16:11:55;;;;;;;15.78;5.45;;;;;;;10.23;99.04;98863.64;1728726;83;21161;-61
2023/01/18 16:14:32;;;;;;;18.07;5.67;;;;;;;10.22;99.05;98861.44;1728751;83;21138;-62
2023/01/18 16:17:21;;;;;;;19.57;5.65;;;;;;;10.22;99.09;98866.91;1728665;83;21130;-61
2023/01/18 16:19:53;;;;;;;23.02;6.00;;;;;;;10.21;99.15;98887.14;1698579;83;21547;-61
2023/01/18 16:22:34;;;;;;;17.77;5.60;;;;;;;10.22;99.21;98883.87;1729139;83;21129;-60
2023/01/18 16:25:09;;;;;;;22.35;5.50;;;;;;;10.21;99.20;98881.66;1728872;83;21209;-61